sensor_id;sensor_type;location;lat;lon;timestamp;pressure;altitude;pressure_sealevel;temperature;humidity
54592;BME280;40488;48.558;18.150;2024-02-21T00:00:20;100416.81;;;6.71;85.52
54592;BME280;40488;48.558;18.150;2024-02-21T00:02:50;100409.13;;;6.68;85.27
54592;BME280;40488;48.558;18.150;2024-02-21T00:05:18;100425.94;;;6.65;85.54
54592;BME280;40488;48.558;18.150;2024-02-21T00:07:47;100414.84;;;6.61;85.05
54592;BME280;40488;48.558;18.150;2024-02-21T00:10:15;100413.91;;;6.58;84.79
54592;BME280;40488;48.558;18.150;2024-02-21T00:12:45;100413.78;;;6.53;84.99
54592;BME280;40488;48.558;18.150;2024-02-21T00:15:13;100419.59;;;6.49;84.74
54592;BME280;40488;48.558;18.150;2024-02-21T00:17:43;100422.88;;;6.45;85.55
54592;BME280;40488;48.558;18.150;2024-02-21T00:20:13;100414.19;;;6.37;85.66
54592;BME280;40488;48.558;18.150;2024-02-21T00:22:41;100417.53;;;6.36;85.75
54592;BME280;40488;48.558;18.150;2024-02-21T00:25:10;100416.53;;;6.31;85.66
54592;BME280;40488;48.558;18.150;2024-02-21T00:27:38;100417.28;;;6.27;85.33
54592;BME280;40488;48.558;18.150;2024-02-21T00:30:07;100413.84;;;6.25;85.47
54592;BME280;40488;48.558;18.150;2024-02-21T00:32:36;100410.50;;;6.26;85.95
54592;BME280;40488;48.558;18.150;2024-02-21T00:35:04;100399.44;;;6.24;86.32
54592;BME280;40488;48.558;18.150;2024-02-21T00:37:34;100393.47;;;6.22;85.53
54592;BME280;40488;48.558;18.150;2024-02-21T00:40:03;100402.06;;;6.27;86.28
54592;BME280;40488;48.558;18.150;2024-02-21T00:42:32;100392.78;;;6.28;85.98
54592;BME280;40488;48.558;18.150;2024-02-21T00:45:01;100398.72;;;6.28;86.22
54592;BME280;40488;48.558;18.150;2024-02-21T00:47:29;100396.25;;;6.31;86.29
54592;BME280;40488;48.558;18.150;2024-02-21T00:49:58;100399.72;;;6.33;86.63
54592;BME280;40488;48.558;18.150;2024-02-21T00:52:27;100395.44;;;6.32;86.30
54592;BME280;40488;48.558;18.150;2024-02-21T00:54:57;100395.41;;;6.31;87.13
54592;BME280;40488;48.558;18.150;2024-02-21T00:57:25;100389.50;;;6.32;87.30
54592;BME280;40488;48.558;18.150;2024-02-21T00:59:54;100391.25;;;6.33;87.37
54592;BME280;40488;48.558;18.150;2024-02-21T01:02:22;100388.66;;;6.31;86.40
54592;BME280;40488;48.558;18.150;2024-02-21T01:04:51;100394.50;;;6.29;87.15
54592;BME280;40488;48.558;18.150;2024-02-21T01:07:19;100387.72;;;6.28;86.98
54592;BME280;40488;48.558;18.150;2024-02-21T01:09:48;100383.53;;;6.28;87.04
54592;BME280;40488;48.558;18.150;2024-02-21T01:12:19;100387.69;;;6.26;87.05
54592;BME280;40488;48.558;18.150;2024-02-21T01:14:47;100388.25;;;6.16;86.63
54592;BME280;40488;48.558;18.150;2024-02-21T01:17:16;100382.19;;;6.11;87.25
54592;BME280;40488;48.558;18.150;2024-02-21T01:19:46;100380.44;;;6.08;86.51
54592;BME280;40488;48.558;18.150;2024-02-21T01:22:14;100376.94;;;6.05;86.74
54592;BME280;40488;48.558;18.150;2024-02-21T01:24:43;100380.16;;;5.99;87.13
54592;BME280;40488;48.558;18.150;2024-02-21T01:27:11;100381.00;;;6.00;87.57
54592;BME280;40488;48.558;18.150;2024-02-21T01:29:41;100381.00;;;6.00;86.96
54592;BME280;40488;48.558;18.150;2024-02-21T01:32:09;100378.47;;;6.00;87.29
54592;BME280;40488;48.558;18.150;2024-02-21T01:34:38;100374.34;;;6.02;87.38
54592;BME280;40488;48.558;18.150;2024-02-21T01:37:06;100376.03;;;6.03;87.72
54592;BME280;40488;48.558;18.150;2024-02-21T01:39:34;100376.03;;;6.03;87.70
54592;BME280;40488;48.558;18.150;2024-02-21T01:42:03;100370.97;;;6.03;87.90
54592;BME280;40488;48.558;18.150;2024-02-21T01:44:32;100363.34;;;6.01;87.79
54592;BME280;40488;48.558;18.150;2024-02-21T01:47:01;100365.81;;;6.00;87.71
54592;BME280;40488;48.558;18.150;2024-02-21T01:49:30;100357.31;;;5.98;87.31
54592;BME280;40488;48.558;18.150;2024-02-21T01:52:00;100365.75;;;5.97;87.73
54592;BME280;40488;48.558;18.150;2024-02-21T01:54:28;100362.22;;;5.92;87.79
54592;BME280;40488;48.558;18.150;2024-02-21T01:56:57;100363.84;;;5.90;87.06
54592;BME280;40488;48.558;18.150;2024-02-21T01:59:26;100358.69;;;5.87;87.67
54592;BME280;40488;48.558;18.150;2024-02-21T02:01:55;100364.63;;;5.87;87.84
54592;BME280;40488;48.558;18.150;2024-02-21T02:04:26;100367.91;;;5.85;87.29
54592;BME280;40488;48.558;18.150;2024-02-21T02:06:55;100364.53;;;5.84;87.78
54592;BME280;40488;48.558;18.150;2024-02-21T02:09:24;100358.69;;;5.87;87.77
54592;BME280;40488;48.558;18.150;2024-02-21T02:11:52;100354.56;;;5.90;87.87
54592;BME280;40488;48.558;18.150;2024-02-21T02:14:21;100347.81;;;5.91;88.10
54592;BME280;40488;48.558;18.150;2024-02-21T02:16:49;100344.47;;;5.92;88.19
54592;BME280;40488;48.558;18.150;2024-02-21T02:19:18;100352.09;;;5.92;88.47
54592;BME280;40488;48.558;18.150;2024-02-21T02:21:49;100355.38;;;5.89;87.43
54592;BME280;40488;48.558;18.150;2024-02-21T02:24:24;100355.41;;;5.91;88.14
54592;BME280;40488;48.558;18.150;2024-02-21T02:26:53;100350.34;;;5.91;88.18
54592;BME280;40488;48.558;18.150;2024-02-21T02:29:22;100351.88;;;5.86;88.07
54592;BME280;40488;48.558;18.150;2024-02-21T02:31:50;100345.13;;;5.85;88.41
54592;BME280;40488;48.558;18.150;2024-02-21T02:34:19;100340.97;;;5.87;88.30
54592;BME280;40488;48.558;18.150;2024-02-21T02:36:48;100343.50;;;5.87;88.47
54592;BME280;40488;48.558;18.150;2024-02-21T02:39:16;100336.59;;;5.83;88.39
54592;BME280;40488;48.558;18.150;2024-02-21T02:41:46;100332.50;;;5.86;87.97
54592;BME280;40488;48.558;18.150;2024-02-21T02:44:14;100331.63;;;5.86;88.59
54592;BME280;40488;48.558;18.150;2024-02-21T02:46:43;100328.16;;;5.84;88.44
54592;BME280;40488;48.558;18.150;2024-02-21T02:49:11;100326.56;;;5.86;88.55
54592;BME280;40488;48.558;18.150;2024-02-21T02:51:41;100328.16;;;5.84;88.58
54592;BME280;40488;48.558;18.150;2024-02-21T02:54:09;100332.31;;;5.80;88.86
54592;BME280;40488;48.558;18.150;2024-02-21T02:56:38;100333.88;;;5.77;88.61
54592;BME280;40488;48.558;18.150;2024-02-21T02:59:08;100337.94;;;5.72;88.17
54592;BME280;40488;48.558;18.150;2024-02-21T03:01:37;100342.84;;;5.66;88.60
54592;BME280;40488;48.558;18.150;2024-02-21T03:04:05;100336.03;;;5.65;88.54
54592;BME280;40488;48.558;18.150;2024-02-21T03:06:34;100334.41;;;5.67;88.45
54592;BME280;40488;48.558;18.150;2024-02-21T03:09:02;100333.56;;;5.66;88.73
54592;BME280;40488;48.558;18.150;2024-02-21T03:11:36;100336.03;;;5.65;89.05
54592;BME280;40488;48.558;18.150;2024-02-21T03:14:09;100338.44;;;5.60;88.44
54592;BME280;40488;48.558;18.150;2024-02-21T03:16:38;100346.06;;;5.62;88.78
54592;BME280;40488;48.558;18.150;2024-02-21T03:19:06;100336.03;;;5.65;88.85
54592;BME280;40488;48.558;18.150;2024-02-21T03:21:35;100327.72;;;5.69;88.87
54592;BME280;40488;48.558;18.150;2024-02-21T03:24:04;100335.25;;;5.66;88.66
54592;BME280;40488;48.558;18.150;2024-02-21T03:26:32;100336.03;;;5.65;88.95
54592;BME280;40488;48.558;18.150;2024-02-21T03:29:01;100338.56;;;5.65;88.91
54592;BME280;40488;48.558;18.150;2024-02-21T03:31:31;100336.81;;;5.62;88.97
54592;BME280;40488;48.558;18.150;2024-02-21T03:33:59;100343.72;;;5.66;89.16
54592;BME280;40488;48.558;18.150;2024-02-21T03:36:28;100344.53;;;5.67;88.47
54592;BME280;40488;48.558;18.150;2024-02-21T03:38:56;100337.78;;;5.66;88.66
54592;BME280;40488;48.558;18.150;2024-02-21T03:41:25;100334.25;;;5.61;89.09
54592;BME280;40488;48.558;18.150;2024-02-21T03:43:53;100335.06;;;5.60;89.29
54592;BME280;40488;48.558;18.150;2024-02-21T03:46:22;100331.66;;;5.59;88.62
54592;BME280;40488;48.558;18.150;2024-02-21T03:48:51;100334.06;;;5.55;89.26
54592;BME280;40488;48.558;18.150;2024-02-21T03:51:20;100332.34;;;5.54;89.21
54592;BME280;40488;48.558;18.150;2024-02-21T03:53:48;100324.63;;;5.49;88.81
54592;BME280;40488;48.558;18.150;2024-02-21T03:56:18;100326.44;;;5.53;88.99
54592;BME280;40488;48.558;18.150;2024-02-21T03:58:46;100328.91;;;5.52;88.87
54592;BME280;40488;48.558;18.150;2024-02-21T04:01:15;100327.06;;;5.46;89.13
54592;BME280;40488;48.558;18.150;2024-02-21T04:03:44;100331.22;;;5.44;89.14
54592;BME280;40488;48.558;18.150;2024-02-21T04:06:14;100328.44;;;5.36;88.99
54592;BME280;40488;48.558;18.150;2024-02-21T04:08:42;100321.50;;;5.29;89.07
54592;BME280;40488;48.558;18.150;2024-02-21T04:11:11;100326.44;;;5.26;88.87
54592;BME280;40488;48.558;18.150;2024-02-21T04:13:58;100314.69;;;5.28;88.90
54592;BME280;40488;48.558;18.150;2024-02-21T04:16:26;100314.63;;;5.25;88.62
54592;BME280;40488;48.558;18.150;2024-02-21T04:18:55;100318.81;;;5.25;88.55
54592;BME280;40488;48.558;18.150;2024-02-21T04:21:24;100319.59;;;5.22;88.58
54592;BME280;40488;48.558;18.150;2024-02-21T04:23:53;100322.75;;;5.15;88.63
54592;BME280;40488;48.558;18.150;2024-02-21T04:26:22;100316.69;;;5.10;88.62
54592;BME280;40488;48.558;18.150;2024-02-21T04:28:50;100312.31;;;5.06;88.42
54592;BME280;40488;48.558;18.150;2024-02-21T04:31:19;100310.47;;;5.01;88.74
54592;BME280;40488;48.558;18.150;2024-02-21T04:33:48;100313.00;;;5.01;88.20
54592;BME280;40488;48.558;18.150;2024-02-21T04:36:16;100304.59;;;5.02;88.90
54592;BME280;40488;48.558;18.150;2024-02-21T04:38:46;100305.44;;;5.02;88.71
54592;BME280;40488;48.558;18.150;2024-02-21T04:41:14;100304.56;;;5.00;88.80
54592;BME280;40488;48.558;18.150;2024-02-21T04:43:43;100307.97;;;5.02;88.83
54592;BME280;40488;48.558;18.150;2024-02-21T04:46:11;100314.63;;;4.99;88.79
54592;BME280;40488;48.558;18.150;2024-02-21T04:48:40;100318.72;;;4.95;88.83
54592;BME280;40488;48.558;18.150;2024-02-21T04:51:08;100311.28;;;5.00;89.04
54592;BME280;40488;48.558;18.150;2024-02-21T04:53:37;100303.81;;;5.04;89.08
54592;BME280;40488;48.558;18.150;2024-02-21T04:56:07;100308.97;;;5.07;89.27
54592;BME280;40488;48.558;18.150;2024-02-21T04:58:37;100304.81;;;5.09;89.00
54592;BME280;40488;48.558;18.150;2024-02-21T05:01:05;100305.78;;;5.13;89.35
54592;BME280;40488;48.558;18.150;2024-02-21T05:03:35;100310.03;;;5.14;89.10
54592;BME280;40488;48.558;18.150;2024-02-21T05:06:03;100302.41;;;5.12;89.69
54592;BME280;40488;48.558;18.150;2024-02-21T05:08:32;100305.72;;;5.11;89.65
54592;BME280;40488;48.558;18.150;2024-02-21T05:11:00;100303.19;;;5.11;89.48
54592;BME280;40488;48.558;18.150;2024-02-21T05:13:31;100302.38;;;5.11;89.79
54592;BME280;40488;48.558;18.150;2024-02-21T05:15:59;100304.13;;;5.13;89.82
54592;BME280;40488;48.558;18.150;2024-02-21T05:18:29;100303.94;;;5.07;89.65
54592;BME280;40488;48.558;18.150;2024-02-21T05:20:58;100296.19;;;5.03;89.75
54592;BME280;40488;48.558;18.150;2024-02-21T05:23:27;100300.38;;;5.02;89.80
54592;BME280;40488;48.558;18.150;2024-02-21T05:25:55;100303.78;;;5.03;89.93
54592;BME280;40488;48.558;18.150;2024-02-21T05:28:24;100298.75;;;5.04;90.04
54592;BME280;40488;48.558;18.150;2024-02-21T05:30:53;100303.88;;;5.06;90.01
54592;BME280;40488;48.558;18.150;2024-02-21T05:33:22;100303.94;;;5.07;90.16
54592;BME280;40488;48.558;18.150;2024-02-21T05:35:51;100307.19;;;5.03;90.51
54592;BME280;40488;48.558;18.150;2024-02-21T05:38:19;100298.69;;;5.01;90.24
54592;BME280;40488;48.558;18.150;2024-02-21T05:40:47;100310.50;;;5.02;90.36
54592;BME280;40488;48.558;18.150;2024-02-21T05:43:16;100312.25;;;5.03;90.41
54592;BME280;40488;48.558;18.150;2024-02-21T05:45:44;100311.38;;;5.03;90.69
54592;BME280;40488;48.558;18.150;2024-02-21T05:48:14;100311.28;;;5.00;90.35
54592;BME280;40488;48.558;18.150;2024-02-21T05:50:43;100309.56;;;4.99;90.31
54592;BME280;40488;48.558;18.150;2024-02-21T05:53:11;100309.72;;;5.03;90.39
54592;BME280;40488;48.558;18.150;2024-02-21T05:55:40;100319.09;;;5.07;90.29
54592;BME280;40488;48.558;18.150;2024-02-21T05:58:08;100311.47;;;5.06;90.57
54592;BME280;40488;48.558;18.150;2024-02-21T06:00:41;100310.50;;;5.02;90.91
54592;BME280;40488;48.558;18.150;2024-02-21T06:03:09;100313.88;;;5.01;90.93
54592;BME280;40488;48.558;18.150;2024-02-21T06:05:39;100316.59;;;5.09;90.47
54592;BME280;40488;48.558;18.150;2024-02-21T06:08:08;100320.91;;;5.11;90.57
54592;BME280;40488;48.558;18.150;2024-02-21T06:10:36;100314.25;;;5.13;90.86
54592;BME280;40488;48.558;18.150;2024-02-21T06:13:05;100321.22;;;5.20;90.63
54592;BME280;40488;48.558;18.150;2024-02-21T06:15:33;100322.13;;;5.22;90.53
54592;BME280;40488;48.558;18.150;2024-02-21T06:18:02;100318.09;;;5.29;90.49
54592;BME280;40488;48.558;18.150;2024-02-21T06:20:30;100316.59;;;5.35;90.73
54592;BME280;40488;48.558;18.150;2024-02-21T06:23:00;100314.16;;;5.38;90.58
54592;BME280;40488;48.558;18.150;2024-02-21T06:25:29;100314.13;;;5.37;90.55
54592;BME280;40488;48.558;18.150;2024-02-21T06:27:57;100313.44;;;5.42;90.50
54592;BME280;40488;48.558;18.150;2024-02-21T06:30:25;100311.75;;;5.41;90.44
54592;BME280;40488;48.558;18.150;2024-02-21T06:32:54;100319.47;;;5.46;90.78
54592;BME280;40488;48.558;18.150;2024-02-21T06:35:24;100319.59;;;5.51;90.03
54592;BME280;40488;48.558;18.150;2024-02-21T06:37:52;100322.88;;;5.48;90.52
54592;BME280;40488;48.558;18.150;2024-02-21T06:40:22;100324.75;;;5.54;90.21
54592;BME280;40488;48.558;18.150;2024-02-21T06:42:51;100329.84;;;5.55;89.77
54592;BME280;40488;48.558;18.150;2024-02-21T06:45:19;100317.44;;;5.63;90.47
54592;BME280;40488;48.558;18.150;2024-02-21T06:47:48;100322.59;;;5.66;90.14
54592;BME280;40488;48.558;18.150;2024-02-21T06:50:16;100320.06;;;5.66;89.87
54592;BME280;40488;48.558;18.150;2024-02-21T06:52:45;100316.75;;;5.68;90.10
54592;BME280;40488;48.558;18.150;2024-02-21T06:55:13;100319.50;;;5.76;90.14
54592;BME280;40488;48.558;18.150;2024-02-21T06:57:43;100327.22;;;5.80;90.12
54592;BME280;40488;48.558;18.150;2024-02-21T07:00:12;100325.41;;;5.76;89.63
54592;BME280;40488;48.558;18.150;2024-02-21T07:02:42;100319.56;;;5.79;89.75
54592;BME280;40488;48.558;18.150;2024-02-21T07:05:10;100322.22;;;5.83;90.07
54592;BME280;40488;48.558;18.150;2024-02-21T07:07:39;100329.78;;;5.82;89.41
54592;BME280;40488;48.558;18.150;2024-02-21T07:10:08;100326.53;;;5.84;89.32
54592;BME280;40488;48.558;18.150;2024-02-21T07:12:38;100333.44;;;5.90;89.14
54592;BME280;40488;48.558;18.150;2024-02-21T07:15:10;100320.91;;;5.94;89.46
54592;BME280;40488;48.558;18.150;2024-02-21T07:17:39;100326.03;;;5.97;89.25
54592;BME280;40488;48.558;18.150;2024-02-21T07:20:07;100328.72;;;6.02;89.30
54592;BME280;40488;48.558;18.150;2024-02-21T07:22:36;100327.16;;;6.07;89.00
54592;BME280;40488;48.558;18.150;2024-02-21T07:25:05;100324.91;;;6.16;89.49
54592;BME280;40488;48.558;18.150;2024-02-21T07:27:33;100326.03;;;6.27;89.30
54592;BME280;40488;48.558;18.150;2024-02-21T07:30:02;100326.25;;;6.36;89.72
54592;BME280;40488;48.558;18.150;2024-02-21T07:32:32;100333.88;;;6.36;88.53
54592;BME280;40488;48.558;18.150;2024-02-21T07:35:01;100328.66;;;6.30;89.43
54592;BME280;40488;48.558;18.150;2024-02-21T07:37:30;100321.06;;;6.30;89.09
54592;BME280;40488;48.558;18.150;2024-02-21T07:39:59;100326.13;;;6.30;89.04
54592;BME280;40488;48.558;18.150;2024-02-21T07:42:28;100327.00;;;6.32;89.04
54592;BME280;40488;48.558;18.150;2024-02-21T07:44:59;100332.09;;;6.34;88.28
54592;BME280;40488;48.558;18.150;2024-02-21T07:47:28;100329.78;;;6.41;88.11
54592;BME280;40488;48.558;18.150;2024-02-21T07:49:58;100328.63;;;6.61;88.18
54592;BME280;40488;48.558;18.150;2024-02-21T07:52:27;100322.59;;;6.91;88.56
54592;BME280;40488;48.558;18.150;2024-02-21T07:54:55;100312.00;;;7.08;88.68
54592;BME280;40488;48.558;18.150;2024-02-21T07:57:24;100319.88;;;7.19;87.88
54592;BME280;40488;48.558;18.150;2024-02-21T07:59:52;100316.38;;;7.14;88.72
54592;BME280;40488;48.558;18.150;2024-02-21T08:02:21;100325.59;;;7.10;88.07
54592;BME280;40488;48.558;18.150;2024-02-21T08:04:49;100330.38;;;6.98;87.65
54592;BME280;40488;48.558;18.150;2024-02-21T08:07:19;100330.88;;;6.84;87.83
54592;BME280;40488;48.558;18.150;2024-02-21T08:09:47;100324.09;;;6.83;87.45
54592;BME280;40488;48.558;18.150;2024-02-21T08:12:16;100327.50;;;6.83;86.92
54592;BME280;40488;48.558;18.150;2024-02-21T08:14:44;100319.81;;;6.82;87.15
54592;BME280;40488;48.558;18.150;2024-02-21T08:17:13;100314.13;;;6.90;87.65
54592;BME280;40488;48.558;18.150;2024-02-21T08:19:42;100318.16;;;7.18;87.29
54592;BME280;40488;48.558;18.150;2024-02-21T08:22:10;100308.47;;;7.39;87.59
54592;BME280;40488;48.558;18.150;2024-02-21T08:24:40;100302.06;;;7.56;87.80
54592;BME280;40488;48.558;18.150;2024-02-21T08:27:08;100307.38;;;7.65;87.10
54592;BME280;40488;48.558;18.150;2024-02-21T08:29:37;100309.06;;;7.66;86.58
54592;BME280;40488;48.558;18.150;2024-02-21T08:32:05;100310.72;;;7.64;86.67
54592;BME280;40488;48.558;18.150;2024-02-21T08:34:34;100300.56;;;7.63;86.44
54592;BME280;40488;48.558;18.150;2024-02-21T08:37:02;100304.75;;;7.62;86.23
54592;BME280;40488;48.558;18.150;2024-02-21T08:39:31;100305.72;;;7.67;86.35
54592;BME280;40488;48.558;18.150;2024-02-21T08:42:00;100305.91;;;7.76;86.38
54592;BME280;40488;48.558;18.150;2024-02-21T08:44:29;100296.72;;;7.83;85.77
54592;BME280;40488;48.558;18.150;2024-02-21T08:46:58;100290.66;;;7.76;85.80
54592;BME280;40488;48.558;18.150;2024-02-21T08:49:27;100293.91;;;7.69;85.37
54592;BME280;40488;48.558;18.150;2024-02-21T08:52:00;100288.81;;;7.69;85.02
54592;BME280;40488;48.558;18.150;2024-02-21T08:54:29;100288.94;;;7.75;85.19
54592;BME280;40488;48.558;18.150;2024-02-21T08:56:58;100294.09;;;7.78;85.44
54592;BME280;40488;48.558;18.150;2024-02-21T08:59:28;100280.03;;;7.97;85.06
54592;BME280;40488;48.558;18.150;2024-02-21T09:01:56;100279.59;;;8.18;85.18
54592;BME280;40488;48.558;18.150;2024-02-21T09:04:25;100280.03;;;8.39;84.69
54592;BME280;40488;48.558;18.150;2024-02-21T09:06:54;100275.09;;;8.48;84.08
54592;BME280;40488;48.558;18.150;2024-02-21T09:09:22;100276.91;;;8.55;83.64
54592;BME280;40488;48.558;18.150;2024-02-21T09:11:55;100276.75;;;8.46;83.12
54592;BME280;40488;48.558;18.150;2024-02-21T09:14:24;100267.56;;;8.54;83.34
54592;BME280;40488;48.558;18.150;2024-02-21T09:16:54;100262.84;;;8.75;83.30
54592;BME280;40488;48.558;18.150;2024-02-21T09:19:23;100262.22;;;8.91;82.45
54592;BME280;40488;48.558;18.150;2024-02-21T09:21:52;100257.25;;;8.97;81.48
54592;BME280;40488;48.558;18.150;2024-02-21T09:24:20;100258.94;;;8.98;79.65
54592;BME280;40488;48.558;18.150;2024-02-21T09:26:49;100264.34;;;9.19;79.70
54592;BME280;40488;48.558;18.150;2024-02-21T09:29:17;100261.94;;;9.30;79.32
54592;BME280;40488;48.558;18.150;2024-02-21T09:31:50;100257.06;;;9.47;78.44
54592;BME280;40488;48.558;18.150;2024-02-21T09:34:20;100250.34;;;9.52;77.76
54592;BME280;40488;48.558;18.150;2024-02-21T09:36:49;100254.88;;;9.74;78.21
54592;BME280;40488;48.558;18.150;2024-02-21T09:39:17;100260.84;;;9.77;76.79
54592;BME280;40488;48.558;18.150;2024-02-21T09:41:47;100257.56;;;9.86;76.26
54592;BME280;40488;48.558;18.150;2024-02-21T09:44:19;100263.44;;;9.82;76.21
54592;BME280;40488;48.558;18.150;2024-02-21T09:46:50;100261.91;;;9.96;76.10
54592;BME280;40488;48.558;18.150;2024-02-21T09:49:24;100256.03;;;10.03;75.72
54592;BME280;40488;48.558;18.150;2024-02-21T09:51:55;100261.16;;;10.04;75.04
54592;BME280;40488;48.558;18.150;2024-02-21T09:54:25;100262.91;;;10.07;74.07
54592;BME280;40488;48.558;18.150;2024-02-21T09:56:56;100250.25;;;10.16;74.66
54592;BME280;40488;48.558;18.150;2024-02-21T09:59:24;100261.41;;;10.27;74.27
54592;BME280;40488;48.558;18.150;2024-02-21T10:01:53;100258.97;;;10.36;73.43
54592;BME280;40488;48.558;18.150;2024-02-21T10:04:23;100252.97;;;10.33;73.33
54592;BME280;40488;48.558;18.150;2024-02-21T10:06:53;100248.78;;;10.39;72.45
54592;BME280;40488;48.558;18.150;2024-02-21T10:09:22;100245.47;;;10.48;71.85
54592;BME280;40488;48.558;18.150;2024-02-21T10:11:51;100245.53;;;10.58;72.35
54592;BME280;40488;48.558;18.150;2024-02-21T10:14:19;100248.25;;;10.78;71.56
54592;BME280;40488;48.558;18.150;2024-02-21T10:16:48;100246.53;;;10.75;70.64
54592;BME280;40488;48.558;18.150;2024-02-21T10:19:17;100244.13;;;10.97;71.33
54592;BME280;40488;48.558;18.150;2024-02-21T10:24:36;100239.25;;;11.30;69.64
54592;BME280;40488;48.558;18.150;2024-02-21T10:27:08;100223.09;;;11.43;68.97
54592;BME280;40488;48.558;18.150;2024-02-21T10:29:39;100220.53;;;11.40;68.44
54592;BME280;40488;48.558;18.150;2024-02-21T10:32:09;100222.16;;;11.26;68.49
54592;BME280;40488;48.558;18.150;2024-02-21T10:34:39;100214.38;;;11.05;69.21
54592;BME280;40488;48.558;18.150;2024-02-21T10:37:08;100215.13;;;10.86;70.05
54592;BME280;40488;48.558;18.150;2024-02-21T10:39:39;100211.56;;;10.65;69.54
54592;BME280;40488;48.558;18.150;2024-02-21T10:42:07;100218.25;;;10.51;69.52
54592;BME280;40488;48.558;18.150;2024-02-21T10:44:40;100215.59;;;10.38;70.24
54592;BME280;40488;48.558;18.150;2024-02-21T10:47:10;100208.81;;;10.38;70.67
54592;BME280;40488;48.558;18.150;2024-02-21T10:49:40;100199.50;;;10.43;71.52
54592;BME280;40488;48.558;18.150;2024-02-21T10:52:13;100201.28;;;10.56;71.36
54592;BME280;40488;48.558;18.150;2024-02-21T10:54:51;100187.66;;;10.54;71.19
54592;BME280;40488;48.558;18.150;2024-02-21T10:57:22;100191.91;;;10.54;71.37
54592;BME280;40488;48.558;18.150;2024-02-21T10:59:51;100190.19;;;10.48;71.68
54592;BME280;40488;48.558;18.150;2024-02-21T11:02:21;100192.75;;;10.48;71.98
54592;BME280;40488;48.558;18.150;2024-02-21T11:04:50;100188.47;;;10.49;72.23
54592;BME280;40488;48.558;18.150;2024-02-21T11:07:21;100187.63;;;10.51;72.40
54592;BME280;40488;48.558;18.150;2024-02-21T11:09:54;100179.22;;;10.64;72.89
54592;BME280;40488;48.558;18.150;2024-02-21T11:12:23;100164.06;;;10.86;73.08
54592;BME280;40488;48.558;18.150;2024-02-21T11:14:52;100160.75;;;11.05;72.27
54592;BME280;40488;48.558;18.150;2024-02-21T11:17:21;100162.59;;;11.36;71.55
54592;BME280;40488;48.558;18.150;2024-02-21T11:19:53;100155.88;;;11.65;70.82
54592;BME280;40488;48.558;18.150;2024-02-21T11:22:22;100151.69;;;11.93;69.77
54592;BME280;40488;48.558;18.150;2024-02-21T11:24:53;100153.38;;;11.82;68.59
54592;BME280;40488;48.558;18.150;2024-02-21T11:27:22;100155.00;;;11.66;68.17
54592;BME280;40488;48.558;18.150;2024-02-21T11:29:54;100148.16;;;11.55;67.96
54592;BME280;40488;48.558;18.150;2024-02-21T11:32:24;100143.91;;;11.55;68.62
54592;BME280;40488;48.558;18.150;2024-02-21T11:34:54;100150.72;;;11.50;68.52
54592;BME280;40488;48.558;18.150;2024-02-21T11:37:24;100142.16;;;11.45;68.92
54592;BME280;40488;48.558;18.150;2024-02-21T11:39:55;100141.31;;;11.32;69.10
54592;BME280;40488;48.558;18.150;2024-02-21T11:42:24;100142.88;;;11.09;68.32
54592;BME280;40488;48.558;18.150;2024-02-21T11:44:53;100133.50;;;11.01;68.69
54592;BME280;40488;48.558;18.150;2024-02-21T11:47:24;100141.13;;;10.92;69.30
54592;BME280;40488;48.558;18.150;2024-02-21T11:49:52;100139.34;;;10.82;69.73
54592;BME280;40488;48.558;18.150;2024-02-21T11:52:23;100131.66;;;10.74;70.01
54592;BME280;40488;48.558;18.150;2024-02-21T11:54:55;100133.31;;;10.67;70.26
54592;BME280;40488;48.558;18.150;2024-02-21T11:57:32;100136.69;;;10.66;70.22
54592;BME280;40488;48.558;18.150;2024-02-21T12:00:11;100131.59;;;10.65;70.11
54592;BME280;40488;48.558;18.150;2024-02-21T12:02:40;100130.72;;;10.60;70.50
54592;BME280;40488;48.558;18.150;2024-02-21T12:05:08;100122.22;;;10.64;70.81
54592;BME280;40488;48.558;18.150;2024-02-21T12:07:37;100120.59;;;10.76;70.42
54592;BME280;40488;48.558;18.150;2024-02-21T12:10:09;100121.47;;;10.85;70.39
54592;BME280;40488;48.558;18.150;2024-02-21T12:12:38;100113.03;;;10.92;70.87
54592;BME280;40488;48.558;18.150;2024-02-21T12:15:07;100108.78;;;11.00;71.01
54592;BME280;40488;48.558;18.150;2024-02-21T12:17:35;100110.53;;;11.05;70.87
54592;BME280;40488;48.558;18.150;2024-02-21T12:20:07;100100.25;;;10.99;70.05
54592;BME280;40488;48.558;18.150;2024-02-21T12:22:39;100096.88;;;10.96;70.64
54592;BME280;40488;48.558;18.150;2024-02-21T12:25:18;100086.63;;;10.97;70.82
54592;BME280;40488;48.558;18.150;2024-02-21T12:27:50;100090.91;;;11.00;70.93
54592;BME280;40488;48.558;18.150;2024-02-21T12:30:18;100086.63;;;10.94;70.66
54592;BME280;40488;48.558;18.150;2024-02-21T12:32:47;100080.63;;;10.88;69.96
54592;BME280;40488;48.558;18.150;2024-02-21T12:35:16;100085.75;;;10.88;69.89
54592;BME280;40488;48.558;18.150;2024-02-21T12:37:46;100069.59;;;10.95;69.44
54592;BME280;40488;48.558;18.150;2024-02-21T12:40:14;100070.47;;;11.00;69.30
54592;BME280;40488;48.558;18.150;2024-02-21T12:42:45;100062.84;;;11.09;69.04
54592;BME280;40488;48.558;18.150;2024-02-21T12:45:13;100063.75;;;11.26;68.76
54592;BME280;40488;48.558;18.150;2024-02-21T12:47:43;100060.34;;;11.27;68.58
54592;BME280;40488;48.558;18.150;2024-02-21T12:50:11;100050.94;;;11.12;68.15
54592;BME280;40488;48.558;18.150;2024-02-21T12:52:42;100052.59;;;11.00;68.02
54592;BME280;40488;48.558;18.150;2024-02-21T12:55:10;100048.31;;;10.93;68.09
54592;BME280;40488;48.558;18.150;2024-02-21T12:57:40;100051.72;;;10.90;68.62
54592;BME280;40488;48.558;18.150;2024-02-21T13:00:11;100039.78;;;10.88;68.95